Ocean City, New Jersey
Current Conditions -  °F | °C
As of 10:54 AM on Saturday 25 Oct 2014 (Local Time) from KACY Reporting Station
Clear Clear  
Wind Chill: 61°   Ceiling: Unl
Heat Index: 61°   Visibility: 10mi
Dew Point: 41°   Wind: 9mph
Humidity: 48%   Direction: 270°W
Pressure: 29.9"   Gusts: NA
Location:  39.28°N, 74.57°W
Report Text: KACY 251454Z 27008KT 10SM CLR 16/05 A2990 RMK AO2 SLP124 T01610050 58005
Loading
Personal Weather Stations






























Interactive Weather Map
Tropical Storm Tracking
New forecast layout! Learn more

10-Day Weather Forecast

Advertisements
Track Severe Weather on mobile